Jiu Hua San — 9VBK2 — position and weather

sailwx.info

Track history (hours):
 
Tides and Currents Weather Stations Pressure Air Temp Water Temp Dewpoint Dewpoint Depression Visibility Wind Speed Wind Dir Waves Ship Positions

Jiu Hua San

Last reported at 2017-Oct-01 13:46 UTC. Time now 2017-Oct-16 22:15 UTC.
Position N 01°27' E 103°07'.
Warning: this ship's position is 15 days out of date.

Length 333 m; draft 11.5 m.

Type: Ship. MMSI: 565914000.

Date/timePositionNaut miles runAvg speedWind from/ knotsBaromVisibWave heightAir tempDewpointWater temp
2017-Oct-01 13:46N 01°27' E 103°07'415.2
2017-Oct-01 13:29N 01°25' E 103°10'814.9
2017-Oct-01 12:58N 01°20' E 103°17'715.0
2017-Oct-01 12:31N 01°16' E 103°22'714.0
2017-Oct-01 12:00N 01°13' E 103°29'4 8.6
2017-Oct-01 11:30N 01°14' E 103°33'2 4.7
2017-Oct-01 11:00N 01°14' E 103°35'0 0.1
2017-Oct-01 10:29N 01°14' E 103°35'0 0.1
2017-Oct-01 09:56N 01°14' E 103°35'0 0.1
2017-Oct-01 09:29N 01°14' E 103°35'0 0.1
2017-Oct-01 08:56N 01°14' E 103°35'0 0.0
2017-Oct-01 08:17N 01°14' E 103°35'0 0.1
2017-Oct-01 07:50N 01°14' E 103°35'0 0.2
2017-Oct-01 07:29N 01°14' E 103°35'0 0.0
2017-Oct-01 06:56N 01°14' E 103°35'0 0.0
2017-Oct-01 06:29N 01°14' E 103°35'0 0.1
2017-Oct-01 05:47N 01°14' E 103°35'0 1.1
2017-Oct-01 05:27N 01°14' E 103°35'0 0.5
2017-Oct-01 04:44N 01°14' E 103°35'0 0.0
2017-Oct-01 04:26N 01°14' E 103°35'0 0.1
2017-Oct-01 03:53N 01°14' E 103°35'0 0.0
2017-Oct-01 03:29N 01°14' E 103°35'0 0.3
2017-Oct-01 02:56N 01°14' E 103°36'0 0.0
2017-Sep-30 01:56N 01°14' E 103°36'0 0.0
2017-Sep-30 01:23N 01°14' E 103°36'0 0.1
2017-Sep-30 00:53N 01°14' E 103°36'0 0.0
2017-Sep-30 00:29N 01°14' E 103°36'0 0.1
2017-Sep-29 23:48N 01°14' E 103°36'0 0.5
2017-Sep-29 23:30N 01°14' E 103°36'2 3.5
2017-Sep-29 23:00N 01°12' E 103°36'1 1.8
2017-Sep-29 22:30N 01°12' E 103°36'2 5.0
2017-Sep-29 22:00N 01°11' E 103°39'3 5.2
2017-Sep-29 21:30N 01°10' E 103°41'3 6.0
2017-Sep-29 21:00N 01°08' E 103°44'4 7.1
2017-Sep-29 20:30N 01°10' E 103°47'4 7.0
2017-Sep-29 20:00N 01°11' E 103°50'3 6.6
2017-Sep-29 19:30N 01°13' E 103°53'3 6.6
2017-Sep-29 19:00N 01°14' E 103°56'3 6.3
2017-Sep-29 18:30N 01°15' E 103°59'3 6.6
2017-Sep-29 18:00N 01°16' E 104°03'611.2
2017-Sep-29 17:30N 01°17' E 104°08'  
Track history (hours):
 
Tides and Currents Weather Stations Pressure Air Temp Water Temp Dewpoint Dewpoint Depression Visibility Wind Speed Wind Dir Waves Ship Positions

Jiu Hua San

Last reported at 2017-Oct-01 13:46 UTC. Time now 2017-Oct-16 22:15 UTC.
Position N 01°27' E 103°07'.
Warning: this ship's position is 15 days out of date.

Length 333 m; draft 11.5 m.

Type: Ship. MMSI: 565914000.

Date/timePositionNaut miles runAvg speedWind from/ knotsBaromVisibWave heightAir tempDewpointWater temp
2017-Oct-01 13:46N 01°27' E 103°07'415.2
2017-Oct-01 13:29N 01°25' E 103°10'814.9
2017-Oct-01 12:58N 01°20' E 103°17'715.0
2017-Oct-01 12:31N 01°16' E 103°22'714.0
2017-Oct-01 12:00N 01°13' E 103°29'4 8.6
2017-Oct-01 11:30N 01°14' E 103°33'2 4.7
2017-Oct-01 11:00N 01°14' E 103°35'0 0.1
2017-Oct-01 10:29N 01°14' E 103°35'0 0.1
2017-Oct-01 09:56N 01°14' E 103°35'0 0.1
2017-Oct-01 09:29N 01°14' E 103°35'0 0.1
2017-Oct-01 08:56N 01°14' E 103°35'0 0.0
2017-Oct-01 08:17N 01°14' E 103°35'0 0.1
2017-Oct-01 07:50N 01°14' E 103°35'0 0.2
2017-Oct-01 07:29N 01°14' E 103°35'0 0.0
2017-Oct-01 06:56N 01°14' E 103°35'0 0.0
2017-Oct-01 06:29N 01°14' E 103°35'0 0.1
2017-Oct-01 05:47N 01°14' E 103°35'0 1.1
2017-Oct-01 05:27N 01°14' E 103°35'0 0.5
2017-Oct-01 04:44N 01°14' E 103°35'0 0.0
2017-Oct-01 04:26N 01°14' E 103°35'0 0.1
2017-Oct-01 03:53N 01°14' E 103°35'0 0.0
2017-Oct-01 03:29N 01°14' E 103°35'0 0.3
2017-Oct-01 02:56N 01°14' E 103°36'0 0.0
2017-Sep-30 01:56N 01°14' E 103°36'0 0.0
2017-Sep-30 01:23N 01°14' E 103°36'0 0.1
2017-Sep-30 00:53N 01°14' E 103°36'0 0.0
2017-Sep-30 00:29N 01°14' E 103°36'0 0.1
2017-Sep-29 23:48N 01°14' E 103°36'0 0.5
2017-Sep-29 23:30N 01°14' E 103°36'2 3.5
2017-Sep-29 23:00N 01°12' E 103°36'1 1.8
2017-Sep-29 22:30N 01°12' E 103°36'2 5.0
2017-Sep-29 22:00N 01°11' E 103°39'3 5.2
2017-Sep-29 21:30N 01°10' E 103°41'3 6.0
2017-Sep-29 21:00N 01°08' E 103°44'4 7.1
2017-Sep-29 20:30N 01°10' E 103°47'4 7.0
2017-Sep-29 20:00N 01°11' E 103°50'3 6.6
2017-Sep-29 19:30N 01°13' E 103°53'3 6.6
2017-Sep-29 19:00N 01°14' E 103°56'3 6.3
2017-Sep-29 18:30N 01°15' E 103°59'3 6.6
2017-Sep-29 18:00N 01°16' E 104°03'611.2
2017-Sep-29 17:30N 01°17' E 104°08'  

Dump ship's entire track history